^^
Your Local Weather - Clay, NY Station Historical Data
Daily Summary for April 4, 2017 Units:  Metric    English   Both
« Previous Day
Next Day »
Daily Weekly Monthly Yearly Custom
  High: Low: Average:
Temperature: 13.2 °C 6.7 °C 9.4 °C
Dew Point: 11.1 °C 4.7 °C 7.5 °C
Humidity: 93% 70% 88%
Wind Speed: 12.9km/h 0km/h 5.5km/h
Wind Gust: 20.9km/h - -
Wind- - SE
Pressure: 1003.9 hPa 994.8 hPa -
Precipitation: 37.34 mm    
Historical Graphs
 
 
Tabular Data for April 4, 2017
Time Temperature Dew Point Pressure Wind Wind Speed Wind Gust Humidity Rainfall Rate (Hourly) solar
00:02 9.2 °C 6.1 °C 1003.6 hPa ENE 1.6 km/h 3.2 km/h 81% 2.54 mm 0 W/m2
00:08 9.3 °C 6.6 °C 1003.6 hPa ESE 1.6 km/h 6.4 km/h 83% 3.3 mm 0 W/m2
00:16 10.3 °C 7.7 °C 1003.6 hPa SSE 4.8 km/h 8 km/h 84% 6.6 mm 0 W/m2
00:22 10.4 °C 7.8 °C 1003.6 hPa ESE 6.4 km/h 8 km/h 84% 4.32 mm 0 W/m2
00:28 10.5 °C 7.9 °C 1003.6 hPa SSE 6.4 km/h 8 km/h 84% 2.54 mm 0 W/m2
00:34 10.4 °C 7.8 °C 1002.9 hPa ESE 6.4 km/h 16.1 km/h 84% 2.79 mm 0 W/m2
00:40 10.1 °C 7.6 °C 1002.9 hPa ENE 6.4 km/h 11.3 km/h 84% 2.79 mm 0 W/m2
00:46 9.6 °C 7.2 °C 1002.9 hPa ENE 4.8 km/h 11.3 km/h 85% 2.03 mm 0 W/m2
00:52 9.1 °C 6.7 °C 1002.9 hPa East 4.8 km/h 9.7 km/h 85% 2.03 mm 0 W/m2
00:58 8.8 °C 6.6 °C 1002.9 hPa East 4.8 km/h 9.7 km/h 86% 4.06 mm 0 W/m2
01:04 8.7 °C 6.7 °C 1002.6 hPa East 4.8 km/h 4.8 km/h 87% 3.05 mm 0 W/m2
01:10 8.8 °C 6.9 °C 1002.6 hPa East 3.2 km/h 3.2 km/h 88% 3.81 mm 0 W/m2
01:16 8.9 °C 7.2 °C 1002.6 hPa East 4.8 km/h 4.8 km/h 89% 4.83 mm 0 W/m2
01:22 9.1 °C 7.3 °C 1002.6 hPa ENE 4.8 km/h 9.7 km/h 89% 4.83 mm 0 W/m2
01:28 9 °C 7.3 °C 1002.3 hPa East 4.8 km/h 16.1 km/h 89% 10.16 mm 0 W/m2
01:34 9 °C 7.4 °C 1001.9 hPa East 6.4 km/h 9.7 km/h 90% 4.83 mm 0 W/m2
01:40 8.9 °C 7.4 °C 1001.9 hPa SE 6.4 km/h 8 km/h 90% 10.92 mm 0 W/m2
01:46 8.9 °C 7.3 °C 1001.9 hPa SE 6.4 km/h 8 km/h 90% 11.68 mm 0 W/m2
01:52 8.8 °C 7.3 °C 1001.9 hPa ESE 6.4 km/h 8 km/h 90% 8.13 mm 0 W/m2
01:58 8.6 °C 7.1 °C 1001.2 hPa ENE 6.4 km/h 9.7 km/h 90% 11.68 mm 0 W/m2
02:04 8.1 °C 6.5 °C 1001.2 hPa ENE 6.4 km/h 6.4 km/h 90% 7.87 mm 0 W/m2
02:10 7.7 °C 6.3 °C 1000.2 hPa ENE 6.4 km/h 17.7 km/h 91% 20.07 mm 0 W/m2
02:16 7.6 °C 6.2 °C 999.9 hPa SSE 9.7 km/h 20.9 km/h 91% 7.62 mm 0 W/m2
02:22 7.7 °C 6.3 °C 999.5 hPa ESE 9.7 km/h 14.5 km/h 91% 4.32 mm 0 W/m2
02:28 7.6 °C 6.2 °C 999.5 hPa ESE 9.7 km/h 14.5 km/h 91% 13.97 mm 0 W/m2
02:34 7.6 °C 6.4 °C 999.9 hPa SSE 8 km/h 9.7 km/h 92% 7.87 mm 0 W/m2
02:40 7.7 °C 6.4 °C 999.5 hPa ESE 6.4 km/h 6.4 km/h 92% 26.67 mm 0 W/m2
02:46 7.8 °C 6.6 °C 999.9 hPa SE 4.8 km/h 8 km/h 92% 8.89 mm 0 W/m2
02:52 7.8 °C 6.6 °C 999.9 hPa SE 4.8 km/h 4.8 km/h 92% 6.35 mm 0 W/m2
02:58 7.8 °C 6.6 °C 999.5 hPa ESE 4.8 km/h 6.4 km/h 92% 9.14 mm 0 W/m2
03:04 7.8 °C 6.6 °C 999.5 hPa ENE 6.4 km/h 6.4 km/h 92% 6.1 mm 0 W/m2
03:10 7.7 °C 6.5 °C 999.2 hPa ESE 6.4 km/h 8 km/h 92% 4.57 mm 0 W/m2
03:16 7.6 °C 6.4 °C 999.2 hPa East 6.4 km/h 8 km/h 92% 10.41 mm 0 W/m2
03:22 7.6 °C 6.3 °C 999.2 hPa ENE 6.4 km/h 6.4 km/h 92% 5.84 mm 0 W/m2
03:28 7.4 °C 6.2 °C 999.2 hPa SE 4.8 km/h 6.4 km/h 92% 5.08 mm 0 W/m2
03:34 7.4 °C 6.2 °C 998.9 hPa ESE 4.8 km/h 8 km/h 92% 7.11 mm 0 W/m2
03:40 7.4 °C 6.2 °C 998.9 hPa ESE 4.8 km/h 6.4 km/h 92% 6.1 mm 0 W/m2
03:48 7.4 °C 6.2 °C 998.9 hPa ENE 4.8 km/h 6.4 km/h 92% 3.05 mm 0 W/m2
03:54 7.4 °C 6.3 °C 998.9 hPa East 3.2 km/h 4.8 km/h 93% 2.54 mm 0 W/m2
04:00 7.4 °C 6.3 °C 998.9 hPa East 3.2 km/h 3.2 km/h 93% 1.52 mm 0 W/m2
04:06 7.4 °C 6.3 °C 998.9 hPa NE 4.8 km/h 4.8 km/h 93% 1.02 mm 0 W/m2
04:12 7.4 °C 6.3 °C 998.9 hPa ENE 4.8 km/h 4.8 km/h 93% 0 mm 0 W/m2
04:18 7.4 °C 6.3 °C 998.9 hPa NE 4.8 km/h 4.8 km/h 93% 1.52 mm 0 W/m2
04:24 7.4 °C 6.3 °C 998.5 hPa ENE 4.8 km/h 8 km/h 93% 2.54 mm 0 W/m2
04:32 7.4 °C 6.3 °C 998.5 hPa ENE 4.8 km/h 8 km/h 93% 1.52 mm 0 W/m2
04:38 7.3 °C 6.3 °C 998.5 hPa ESE 4.8 km/h 11.3 km/h 93% 1.02 mm 0 W/m2
04:44 7.3 °C 6.3 °C 998.2 hPa East 6.4 km/h 8 km/h 93% 0 mm 0 W/m2
04:50 7.3 °C 6.2 °C 998.2 hPa ENE 6.4 km/h 6.4 km/h 93% 0 mm 0 W/m2
04:56 7.1 °C 6.1 °C 997.9 hPa ENE 6.4 km/h 6.4 km/h 93% 0 mm 0 W/m2
05:02 7.1 °C 6 °C 997.9 hPa East 6.4 km/h 6.4 km/h 93% 0 mm 0 W/m2
05:08 7 °C 5.9 °C 997.5 hPa ENE 6.4 km/h 17.7 km/h 93% 0 mm 0 W/m2
05:14 6.9 °C 5.9 °C 997.5 hPa ENE 8 km/h 8 km/h 93% 0 mm 0 W/m2
05:20 6.9 °C 5.8 °C 997.5 hPa ESE 6.4 km/h 6.4 km/h 93% 0 mm 0 W/m2
05:26 6.9 °C 5.8 °C 997.5 hPa ENE 6.4 km/h 8 km/h 93% 0 mm 0 W/m2
05:32 6.8 °C 5.8 °C 997.5 hPa East 4.8 km/h 6.4 km/h 93% 0 mm 0 W/m2
05:38 6.8 °C 5.8 °C 997.5 hPa East 4.8 km/h 9.7 km/h 93% 0 mm 0 W/m2
05:44 6.9 °C 5.8 °C 997.5 hPa NE 6.4 km/h 6.4 km/h 93% 0 mm 0 W/m2
05:50 6.9 °C 5.9 °C 997.2 hPa SE 4.8 km/h 4.8 km/h 93% 0 mm 0 W/m2
05:56 6.9 °C 5.9 °C 997.5 hPa East 6.4 km/h 12.9 km/h 93% 0 mm 0 W/m2
06:02 6.8 °C 5.7 °C 997.5 hPa East 6.4 km/h 9.7 km/h 93% 0 mm 0 W/m2
06:08 6.7 °C 5.6 °C 997.5 hPa East 6.4 km/h 9.7 km/h 93% 0 mm 0 W/m2
06:14 6.7 °C 5.6 °C 997.5 hPa East 6.4 km/h 12.9 km/h 93% 0 mm 0 W/m2
06:20 6.7 °C 5.7 °C 997.5 hPa ENE 6.4 km/h 6.4 km/h 93% 0 mm 0 W/m2
06:26 6.8 °C 5.7 °C 997.5 hPa East 4.8 km/h 6.4 km/h 93% 0 mm 0 W/m2
06:32 6.8 °C 5.7 °C 997.5 hPa ENE 4.8 km/h 6.4 km/h 93% 0 mm 0 W/m2
06:38 6.8 °C 5.7 °C 997.5 hPa NNE 6.4 km/h 9.7 km/h 93% 0 mm 0 W/m2
06:44 6.7 °C 5.7 °C 997.2 hPa ENE 6.4 km/h 11.3 km/h 93% 0 mm 0 W/m2
06:50 6.7 °C 5.7 °C 997.2 hPa East 4.8 km/h 8 km/h 93% 0 mm 7 W/m2
06:56 6.8 °C 5.7 °C 997.5 hPa ENE 4.8 km/h 8 km/h 93% 0 mm 7 W/m2
07:02 6.8 °C 5.7 °C 997.2 hPa East 4.8 km/h 4.8 km/h 93% 0 mm 12 W/m2
07:08 6.8 °C 5.8 °C 997.2 hPa East 4.8 km/h 8 km/h 93% 0 mm 18 W/m2
07:14 6.8 °C 5.8 °C 997.2 hPa ENE 4.8 km/h 6.4 km/h 93% 0 mm 28 W/m2
07:20 6.9 °C 5.8 °C 997.2 hPa ESE 4.8 km/h 4.8 km/h 93% 0 mm 26 W/m2
07:26 6.9 °C 5.9 °C 997.2 hPa ENE 4.8 km/h 12.9 km/h 93% 0 mm 23 W/m2
07:32 6.9 °C 5.9 °C 997.2 hPa East 6.4 km/h 8 km/h 93% 0 mm 42 W/m2
07:38 7.1 °C 6 °C 997.2 hPa ENE 6.4 km/h 8 km/h 93% 0 mm 47 W/m2
07:44 7.1 °C 6.1 °C 997.2 hPa East 6.4 km/h 8 km/h 93% 0 mm 62 W/m2
07:50 7.2 °C 6.1 °C 997.2 hPa East 6.4 km/h 6.4 km/h 93% 0 mm 32 W/m2
07:56 7.2 °C 6.1 °C 997.2 hPa ENE 6.4 km/h 8 km/h 93% 0 mm 33 W/m2
08:02 7.2 °C 6.2 °C 997.2 hPa ENE 4.8 km/h 6.4 km/h 93% 0 mm 25 W/m2
08:08 7.2 °C 6.2 °C 997.2 hPa ENE 4.8 km/h 6.4 km/h 93% 0 mm 23 W/m2
08:14 7.3 °C 6.2 °C 997.2 hPa ESE 4.8 km/h 8 km/h 93% 0 mm 26 W/m2
08:20 7.3 °C 6.2 °C 996.8 hPa ESE 4.8 km/h 8 km/h 93% 0 mm 40 W/m2
08:26 7.4 °C 6.3 °C 996.8 hPa SE 6.4 km/h 8 km/h 93% 0 mm 53 W/m2
08:32 7.5 °C 6.4 °C 996.8 hPa East 6.4 km/h 6.4 km/h 93% 0 mm 51 W/m2
08:38 7.6 °C 6.5 °C 996.8 hPa ENE 6.4 km/h 6.4 km/h 93% 0 mm 53 W/m2
08:46 7.7 °C 6.6 °C 996.5 hPa ENE 4.8 km/h 11.3 km/h 93% 0 mm 102 W/m2
08:52 7.8 °C 6.8 °C 996.5 hPa ENE 4.8 km/h 9.7 km/h 93% 0 mm 79 W/m2
08:58 7.9 °C 6.8 °C 996.5 hPa ENE 4.8 km/h 9.7 km/h 93% 0 mm 137 W/m2
09:04 8.1 °C 7.1 °C 996.5 hPa ENE 4.8 km/h 8 km/h 93% 0 mm 149 W/m2
09:10 8.2 °C 7.2 °C 996.5 hPa ENE 4.8 km/h 4.8 km/h 93% 0 mm 102 W/m2
09:16 8.2 °C 7 °C 996.5 hPa ENE 4.8 km/h 8 km/h 92% 0 mm 105 W/m2
09:22 8.3 °C 7.1 °C 996.5 hPa East 4.8 km/h 9.7 km/h 92% 0 mm 26 W/m2
09:28 8.1 °C 6.9 °C 996.2 hPa SE 6.4 km/h 9.7 km/h 92% 0 mm 19 W/m2
09:34 8.1 °C 6.8 °C 996.2 hPa ENE 6.4 km/h 8 km/h 92% 0 mm 39 W/m2
09:40 8.1 °C 6.8 °C 996.2 hPa ENE 4.8 km/h 4.8 km/h 92% 0 mm 93 W/m2
09:46 8.1 °C 6.8 °C 996.2 hPa East 4.8 km/h 8 km/h 92% 0 mm 132 W/m2
09:52 8.2 °C 6.9 °C 996.2 hPa ENE 6.4 km/h 6.4 km/h 92% 0 mm 76 W/m2
09:58 8.1 °C 6.9 °C 996.2 hPa ENE 4.8 km/h 8 km/h 92% 10.92 mm 76 W/m2
10:04 8.1 °C 6.9 °C 996.2 hPa ENE 4.8 km/h 6.4 km/h 92% 3.3 mm 91 W/m2
10:10 8.2 °C 7.1 °C 996.2 hPa East 4.8 km/h 9.7 km/h 93% 1.52 mm 132 W/m2
10:16 8.2 °C 7.1 °C 996.2 hPa ESE 6.4 km/h 9.7 km/h 93% 1.02 mm 137 W/m2
10:22 8.2 °C 7.2 °C 996.2 hPa ESE 8 km/h 8 km/h 93% 0 mm 174 W/m2
10:28 8.3 °C 7.2 °C 995.8 hPa SE 6.4 km/h 11.3 km/h 93% 0 mm 128 W/m2
10:34 8.3 °C 7.3 °C 996.2 hPa ENE 8 km/h 8 km/h 93% 0 mm 83 W/m2
10:40 8.4 °C 7.3 °C 996.2 hPa ENE 8 km/h 8 km/h 93% 0 mm 232 W/m2
10:46 8.5 °C 7.4 °C 995.8 hPa ENE 9.7 km/h 14.5 km/h 93% 0 mm 265 W/m2
10:52 8.7 °C 7.6 °C 995.8 hPa East 8 km/h 9.7 km/h 93% 0 mm 156 W/m2
10:58 8.9 °C 7.8 °C 995.8 hPa East 6.4 km/h 12.9 km/h 93% 0 mm 272 W/m2
11:04 8.9 °C 7.8 °C 995.8 hPa NE 6.4 km/h 8 km/h 93% 0 mm 144 W/m2
11:10 8.9 °C 7.7 °C 995.8 hPa NE 6.4 km/h 6.4 km/h 92% 0 mm 100 W/m2
11:16 8.9 °C 7.7 °C 995.8 hPa ENE 4.8 km/h 6.4 km/h 92% 0 mm 134 W/m2
11:22 9.1 °C 7.8 °C 995.8 hPa East 8 km/h 9.7 km/h 92% 0 mm 346 W/m2
11:28 9.5 °C 8.3 °C 995.8 hPa ENE 8 km/h 9.7 km/h 92% 0 mm 436 W/m2
11:34 9.6 °C 8.2 °C 995.8 hPa ESE 9.7 km/h 9.7 km/h 91% 0 mm 209 W/m2
11:40 9.7 °C 8.3 °C 995.8 hPa ENE 8 km/h 8 km/h 91% 0 mm 193 W/m2
11:46 9.8 °C 8.4 °C 995.5 hPa ENE 8 km/h 14.5 km/h 91% 0 mm 116 W/m2
11:52 9.7 °C 8.3 °C 995.5 hPa ENE 8 km/h 8 km/h 91% 0 mm 81 W/m2
11:58 9.7 °C 8.3 °C 995.5 hPa East 6.4 km/h 8 km/h 91% 0 mm 105 W/m2
12:04 9.7 °C 8.3 °C 995.5 hPa ENE 4.8 km/h 8 km/h 91% 0 mm 160 W/m2
12:10 9.8 °C 8.6 °C 995.5 hPa ENE 4.8 km/h 6.4 km/h 92% 0 mm 144 W/m2
12:16 9.8 °C 8.6 °C 995.5 hPa East 4.8 km/h 11.3 km/h 92% 0 mm 160 W/m2
12:22 9.7 °C 8.5 °C 995.5 hPa East 6.4 km/h 11.3 km/h 92% 0 mm 213 W/m2
12:29 9.8 °C 8.6 °C 995.5 hPa NNE 6.4 km/h 11.3 km/h 92% 0 mm 341 W/m2
12:34 10.1 °C 8.9 °C 995.5 hPa ENE 4.8 km/h 11.3 km/h 92% 0 mm 355 W/m2
12:40 10.3 °C 9.1 °C 995.5 hPa ENE 6.4 km/h 6.4 km/h 92% 0 mm 371 W/m2
12:46 10.6 °C 9.3 °C 995.5 hPa NE 8 km/h 12.9 km/h 92% 0 mm 323 W/m2
12:52 10.8 °C 9.4 °C 995.5 hPa East 4.8 km/h 4.8 km/h 91% 0 mm 345 W/m2
12:58 11 °C 9.6 °C 995.5 hPa SE 4.8 km/h 4.8 km/h 91% 0 mm 251 W/m2
13:04 11.1 °C 9.6 °C 995.5 hPa ENE 4.8 km/h 8 km/h 90% 0 mm 220 W/m2
13:10 11.3 °C 9.8 °C 995.5 hPa ENE 4.8 km/h 6.4 km/h 90% 0 mm 121 W/m2
13:16 11.6 °C 9.9 °C 995.5 hPa ENE 3.2 km/h 9.7 km/h 90% 0 mm 213 W/m2
13:22 11.7 °C 10.1 °C 995.1 hPa NNE 4.8 km/h 4.8 km/h 90% 0 mm 243 W/m2
13:28 11.7 °C 9.9 °C 994.8 hPa ENE 6.4 km/h 8 km/h 89% 0 mm 227 W/m2
13:34 11.9 °C 10.1 °C 995.1 hPa NE 6.4 km/h 6.4 km/h 89% 0 mm 359 W/m2
13:40 11.9 °C 10.2 °C 994.8 hPa NE 4.8 km/h 6.4 km/h 89% 0 mm 408 W/m2
13:46 12.1 °C 10.1 °C 994.8 hPa ENE 4.8 km/h 6.4 km/h 88% 0 mm 195 W/m2
13:52 12.3 °C 10.3 °C 994.8 hPa North 4.8 km/h 8 km/h 88% 0 mm 461 W/m2
13:58 12.9 °C 11.1 °C 994.8 hPa ENE 6.4 km/h 8 km/h 89% 0 mm 680 W/m2
14:04 13.2 °C 10.9 °C 994.8 hPa ENE 6.4 km/h 6.4 km/h 86% 0 mm 380 W/m2
14:10 13.1 °C 10.8 °C 994.8 hPa ENE 4.8 km/h 8 km/h 86% 0 mm 466 W/m2
14:16 12.8 °C 10.5 °C 994.8 hPa East 6.4 km/h 11.3 km/h 86% 0 mm 241 W/m2
14:22 12.2 °C 9.8 °C 994.8 hPa East 6.4 km/h 8 km/h 85% 0 mm 165 W/m2
14:28 12.1 °C 9.8 °C 994.8 hPa ENE 8 km/h 9.7 km/h 86% 0 mm 158 W/m2
14:34 11.9 °C 9.6 °C 994.8 hPa NNE 6.4 km/h 8 km/h 86% 0 mm 67 W/m2
14:40 11.8 °C 9.5 °C 994.8 hPa NNE 3.2 km/h 4.8 km/h 86% 0 mm 74 W/m2
14:46 11.6 °C 9.5 °C 994.8 hPa NE 4.8 km/h 6.4 km/h 87% 0 mm 160 W/m2
14:52 11.6 °C 9.6 °C 994.8 hPa East 3.2 km/h 4.8 km/h 88% 0 mm 313 W/m2
14:58 11.6 °C 9.8 °C 994.8 hPa East 4.8 km/h 8 km/h 89% 0 mm 297 W/m2
15:04 12 °C 10.4 °C 994.8 hPa NNE 4.8 km/h 6.4 km/h 90% 0 mm 255 W/m2
15:10 11.8 °C 9.9 °C 994.8 hPa East 4.8 km/h 4.8 km/h 88% 0 mm 209 W/m2
15:16 11.8 °C 10 °C 995.5 hPa NW 8 km/h 16.1 km/h 89% 0 mm 51 W/m2
15:22 11.3 °C 9.6 °C 995.5 hPa North 12.9 km/h 12.9 km/h 89% 0 mm 47 W/m2
15:28 11.3 °C 9.6 °C 995.1 hPa North 11.3 km/h 12.9 km/h 89% 0 mm 42 W/m2
15:34 10.9 °C 9.2 °C 995.1 hPa East 11.3 km/h 16.1 km/h 89% 0 mm 26 W/m2
15:40 10.8 °C 9.1 °C 995.5 hPa NNE 9.7 km/h 9.7 km/h 89% 4.06 mm 11 W/m2
15:46 10.9 °C 9.3 °C 995.8 hPa North 4.8 km/h 9.7 km/h 90% 14.22 mm 11 W/m2
15:52 11 °C 9.4 °C 995.8 hPa North 1.6 km/h 3.2 km/h 90% 30.99 mm 21 W/m2
15:58 11 °C 9.6 °C 995.8 hPa North 1.6 km/h 3.2 km/h 91% 8.13 mm 40 W/m2
16:04 11.1 °C 9.8 °C 995.5 hPa ENE 1.6 km/h 3.2 km/h 92% 5.33 mm 83 W/m2
16:10 11.2 °C 9.9 °C 995.5 hPa NE 3.2 km/h 3.2 km/h 92% 3.81 mm 123 W/m2
16:16 11.3 °C 10.1 °C 995.8 hPa ENE 4.8 km/h 8 km/h 92% 1.78 mm 148 W/m2
16:22 11.5 °C 10.2 °C 995.8 hPa ENE 4.8 km/h 4.8 km/h 92% 1.02 mm 74 W/m2
16:28 11.6 °C 10.5 °C 995.8 hPa NE 3.2 km/h 4.8 km/h 93% 0 mm 76 W/m2
16:34 11.7 °C 10.6 °C 995.8 hPa NNW 3.2 km/h 4.8 km/h 93% 0 mm 72 W/m2
16:40 11.8 °C 10.7 °C 995.8 hPa NE 1.6 km/h 3.2 km/h 93% 0 mm 46 W/m2
16:46 11.8 °C 10.7 °C 996.2 hPa NE 1.6 km/h 3.2 km/h 93% 0 mm 12 W/m2
16:52 11.7 °C 10.6 °C 996.5 hPa NNW 1.6 km/h 4.8 km/h 93% 0 mm 7 W/m2
16:58 11.5 °C 10.4 °C 996.5 hPa NNW 3.2 km/h 4.8 km/h 93% 0 mm 5 W/m2
17:04 11.4 °C 10.3 °C 996.8 hPa NNW 1.6 km/h 3.2 km/h 93% 2.03 mm 5 W/m2
17:10 11.3 °C 10.2 °C 997.2 hPa NNW 1.6 km/h 1.6 km/h 93% 33.78 mm 5 W/m2
17:16 11.3 °C 10.2 °C 997.5 hPa Calm   3.2 km/h 93% 5.59 mm 5 W/m2
17:22 11.2 °C 10.1 °C 997.5 hPa East 3.2 km/h 4.8 km/h 93% 1.78 mm 18 W/m2
17:28 11 °C 9.9 °C 997.5 hPa SE 3.2 km/h 4.8 km/h 93% 1.02 mm 14 W/m2
17:34 10.9 °C 9.8 °C 997.5 hPa East 3.2 km/h 12.9 km/h 93% 0 mm 19 W/m2
17:40 10.8 °C 9.7 °C 997.5 hPa ESE 4.8 km/h 4.8 km/h 93% 0 mm 14 W/m2
17:46 10.7 °C 9.6 °C 997.9 hPa SSE 4.8 km/h 4.8 km/h 93% 0 mm 5 W/m2
17:52 10.6 °C 9.3 °C 998.2 hPa East 1.6 km/h 3.2 km/h 92% 0 mm 0 W/m2
17:58 10.4 °C 9.3 °C 998.5 hPa SE 1.6 km/h 3.2 km/h 93% 1.27 mm 0 W/m2
18:04 10.1 °C 8.9 °C 998.5 hPa SSE 1.6 km/h 4.8 km/h 92% 5.08 mm 0 W/m2
18:10 9.9 °C 8.7 °C 998.5 hPa East 3.2 km/h 3.2 km/h 92% 1.78 mm 5 W/m2
18:16 9.7 °C 8.5 °C 998.9 hPa ESE 3.2 km/h 6.4 km/h 92% 1.02 mm 5 W/m2
18:22 9.6 °C 8.4 °C 999.2 hPa East 3.2 km/h 6.4 km/h 92% 0 mm 0 W/m2
18:28 9.5 °C 8.3 °C 999.2 hPa East 3.2 km/h 6.4 km/h 92% 0 mm 7 W/m2
18:34 9.4 °C 8.2 °C 999.2 hPa ESE 1.6 km/h 4.8 km/h 92% 0 mm 5 W/m2
18:40 9.4 °C 8.2 °C 999.5 hPa ESE 1.6 km/h 1.6 km/h 92% 0 mm 0 W/m2
18:46 9.4 °C 8.2 °C 999.5 hPa East 1.6 km/h 4.8 km/h 92% 0 mm 0 W/m2
18:52 9.3 °C 8.3 °C 999.9 hPa ENE 1.6 km/h 3.2 km/h 93% 0 mm 5 W/m2
18:58 9.3 °C 8.2 °C 1000.2 hPa Calm   3.2 km/h 93% 0 mm 0 W/m2
19:04 9.3 °C 8.2 °C 1000.2 hPa Calm   4.8 km/h 93% 0 mm 0 W/m2
19:10 9.3 °C 8.2 °C 1000.6 hPa Calm     93% 0 mm 0 W/m2
19:16 9.3 °C 8.2 °C 1000.6 hPa East 1.6 km/h 4.8 km/h 93% 0 mm 5 W/m2
19:22 9.3 °C 8.3 °C 1000.6 hPa East 1.6 km/h 3.2 km/h 93% 0 mm 7 W/m2
19:28 9.6 °C 8.6 °C 1000.6 hPa West 3.2 km/h 14.5 km/h 93% 0 mm 7 W/m2
19:34 9.8 °C 8.6 °C 1000.6 hPa WSW 3.2 km/h 3.2 km/h 92% 0 mm 0 W/m2
19:40 10.2 °C 8.5 °C 1000.6 hPa WNW 3.2 km/h 4.8 km/h 89% 0 mm 0 W/m2
19:46 10.6 °C 8.2 °C 1000.6 hPa West 3.2 km/h 9.7 km/h 85% 0 mm 0 W/m2
19:52 11.1 °C 8.2 °C 1000.6 hPa West 4.8 km/h 12.9 km/h 82% 0 mm 0 W/m2
19:58 11.3 °C 7.6 °C 1000.6 hPa West 6.4 km/h 12.9 km/h 78% 0 mm 0 W/m2
20:04 11.3 °C 7.6 °C 1000.9 hPa WSW 4.8 km/h 6.4 km/h 78% 0 mm 0 W/m2
20:10 11.3 °C 7.6 °C 1000.9 hPa SW 3.2 km/h 4.8 km/h 78% 0 mm 0 W/m2
20:16 11.4 °C 7.5 °C 1000.9 hPa WSW 4.8 km/h 6.4 km/h 77% 0 mm 0 W/m2
20:22 11.4 °C 7.3 °C 1001.2 hPa SSW 4.8 km/h 11.3 km/h 76% 0 mm 0 W/m2
20:28 11.6 °C 7.3 °C 1001.2 hPa SSW 6.4 km/h 11.3 km/h 75% 0 mm 0 W/m2
20:34 11.6 °C 7.1 °C 1001.2 hPa West 8 km/h 11.3 km/h 74% 0 mm 0 W/m2
20:40 11.6 °C 7.1 °C 1001.2 hPa SW 6.4 km/h 11.3 km/h 74% 0 mm 0 W/m2
20:46 11.6 °C 6.9 °C 1001.6 hPa SSW 8 km/h 16.1 km/h 73% 0 mm 0 W/m2
20:52 11.7 °C 6.8 °C 1001.6 hPa SSW 9.7 km/h 11.3 km/h 72% 0 mm 0 W/m2
20:58 11.6 °C 6.7 °C 1001.9 hPa SW 8 km/h 11.3 km/h 72% 0 mm 0 W/m2
21:04 11.6 °C 6.7 °C 1001.9 hPa West 8 km/h 19.3 km/h 72% 0 mm 0 W/m2
21:10 11.6 °C 6.5 °C 1001.9 hPa West 9.7 km/h 9.7 km/h 71% 0 mm 0 W/m2
21:16 11.6 °C 6.7 °C 1002.3 hPa WNW 6.4 km/h 11.3 km/h 72% 0 mm 0 W/m2
21:22 11.6 °C 6.5 °C 1002.3 hPa West 6.4 km/h 6.4 km/h 71% 0 mm 0 W/m2
21:28 11.4 °C 6.4 °C 1002.3 hPa West 6.4 km/h 12.9 km/h 71% 0 mm 0 W/m2
21:34 11.3 °C 6.4 °C 1002.3 hPa SW 3.2 km/h 6.4 km/h 72% 0 mm 0 W/m2
21:40 11.3 °C 6.4 °C 1002.3 hPa West 3.2 km/h 3.2 km/h 72% 0 mm 0 W/m2
21:46 11.2 °C 6.3 °C 1002.3 hPa WSW 4.8 km/h 6.4 km/h 72% 0 mm 0 W/m2
21:52 11.2 °C 6.3 °C 1002.3 hPa WSW 3.2 km/h 3.2 km/h 72% 0 mm 0 W/m2
21:58 11.1 °C 6.3 °C 1002.6 hPa West 3.2 km/h 8 km/h 72% 0 mm 0 W/m2
22:04 11.1 °C 6.2 °C 1002.6 hPa WNW 4.8 km/h 9.7 km/h 72% 0 mm 0 W/m2
22:10 11 °C 5.7 °C 1002.6 hPa WNW 8 km/h 14.5 km/h 70% 0 mm 0 W/m2
22:16 10.9 °C 5.7 °C 1002.9 hPa West 9.7 km/h 16.1 km/h 70% 0 mm 0 W/m2
22:22 10.8 °C 5.6 °C 1002.9 hPa West 9.7 km/h 11.3 km/h 70% 0 mm 0 W/m2
22:28 10.7 °C 5.6 °C 1002.9 hPa WNW 8 km/h 11.3 km/h 71% 0 mm 0 W/m2
22:34 10.7 °C 5.6 °C 1002.9 hPa West 8 km/h 8 km/h 71% 0 mm 0 W/m2
22:40 10.6 °C 5.5 °C 1002.9 hPa SW 6.4 km/h 6.4 km/h 71% 0 mm 0 W/m2
22:46 10.5 °C 5.4 °C 1002.9 hPa WSW 8 km/h 9.7 km/h 71% 0 mm 0 W/m2
22:52 10.4 °C 5.4 °C 1002.9 hPa West 9.7 km/h 9.7 km/h 71% 0 mm 0 W/m2
22:58 10.4 °C 5.3 °C 1003.3 hPa SW 9.7 km/h 9.7 km/h 71% 0 mm 0 W/m2
23:06 10.2 °C 5.4 °C 1003.3 hPa WSW 6.4 km/h 9.7 km/h 72% 0 mm 0 W/m2
23:12 10.2 °C 5.3 °C 1003.3 hPa WSW 8 km/h 12.9 km/h 72% 0 mm 0 W/m2
23:18 10.1 °C 5.2 °C 1003.6 hPa SSW 6.4 km/h 19.3 km/h 72% 0 mm 0 W/m2
23:24 9.9 °C 5.1 °C 1003.6 hPa WSW 9.7 km/h 12.9 km/h 72% 0 mm 0 W/m2
23:30 9.6 °C 5 °C 1003.6 hPa NW 8 km/h 12.9 km/h 73% 0 mm 0 W/m2
23:36 9.5 °C 4.9 °C 1003.9 hPa WSW 8 km/h 12.9 km/h 73% 0 mm 0 W/m2
23:42 9.4 °C 4.8 °C 1003.9 hPa West 6.4 km/h 8 km/h 73% 0 mm 0 W/m2
23:48 9.3 °C 4.7 °C 1003.9 hPa WNW 4.8 km/h 11.3 km/h 73% 0 mm 0 W/m2
23:54 9.3 °C 4.9 °C 1003.9 hPa West 4.8 km/h 4.8 km/h 74% 0 mm 0 W/m2
Country Meadow, Clay, NY, USA
Compliments of Weather Underground - 2 mb